Time;durP1;ratioP1;P1;durP2;ratioP2;P2;SDS_P1;SDS_P2;PMS_P1;PMS_P2;Temp;Humidity;BMP_temperature;BMP_pressure;BME280_temperature;BME280_humidity;BME280_pressure;Samples;Min_cycle;Max_cycle;Signal;HPM_P1;HPM_P2
2023/05/31 00:00:58;;;;;;;5.97;2.10;;;15.90;60.60;;;;;;4993411;28;20061;-63
2023/05/31 00:03:24;;;;;;;4.30;2.08;;;15.80;60.90;;;;;;4991559;28;20062;-69
2023/05/31 00:05:51;;;;;;;6.20;1.90;;;15.80;61.10;;;;;;4993570;28;20058;-70
2023/05/31 00:08:18;;;;;;;7.10;2.00;;;15.70;61.30;;;;;;4990944;28;20059;-70
2023/05/31 00:10:45;;;;;;;7.25;2.10;;;15.70;61.40;;;;;;4977609;28;20585;-69
2023/05/31 00:13:12;;;;;;;4.72;1.90;;;15.70;61.20;;;;;;4992131;28;20050;-62
2023/05/31 00:15:39;;;;;;;6.22;1.88;;;15.60;61.30;;;;;;4991176;28;20057;-62
2023/05/31 00:18:07;;;;;;;4.30;1.70;;;15.60;61.40;;;;;;4991269;28;20054;-69
2023/05/31 00:20:34;;;;;;;7.68;2.08;;;15.50;61.50;;;;;;4993638;28;20051;-70
2023/05/31 00:23:01;;;;;;;6.80;2.00;;;15.40;61.70;;;;;;4995101;28;20046;-74
2023/05/31 00:25:28;;;;;;;7.53;2.00;;;15.40;61.80;;;;;;4995142;28;20054;-73
2023/05/31 00:27:56;;;;;;;6.93;1.70;;;15.40;61.90;;;;;;4993643;28;20195;-63
2023/05/31 00:30:23;;;;;;;6.80;2.08;;;15.30;62.30;;;;;;4991204;28;20042;-63
2023/05/31 00:32:50;;;;;;;5.68;2.03;;;15.30;62.50;;;;;;4989989;28;20045;-69
2023/05/31 00:35:18;;;;;;;5.35;2.00;;;15.20;62.70;;;;;;4992386;28;20061;-69
2023/05/31 00:37:45;;;;;;;4.60;1.80;;;15.10;62.90;;;;;;4978119;28;20050;-72
2023/05/31 00:40:12;;;;;;;5.90;2.30;;;15.10;63.00;;;;;;4992214;28;20136;-73
2023/05/31 00:42:39;;;;;;;7.00;2.45;;;15.10;63.20;;;;;;4987424;28;20055;-77
2023/05/31 00:45:07;;;;;;;6.00;1.90;;;15.00;63.40;;;;;;4986712;28;20045;-77
2023/05/31 00:47:36;;;;;;;4.13;1.58;;;15.00;63.50;;;;;;4976780;28;20046;-77
2023/05/31 00:50:03;;;;;;;7.38;1.90;;;14.90;63.50;;;;;;4963814;28;20050;-77
2023/05/31 00:52:32;;;;;;;6.15;2.10;;;14.90;63.60;;;;;;4995950;28;20049;-76
2023/05/31 00:55:00;;;;;;;5.77;1.90;;;14.90;63.70;;;;;;4991645;28;20050;-77
2023/05/31 00:57:28;;;;;;;6.40;1.90;;;14.90;63.90;;;;;;4993426;28;20039;-76
2023/05/31 00:59:54;;;;;;;5.10;1.90;;;14.90;63.90;;;;;;4975453;28;20049;-76
2023/05/31 01:02:22;;;;;;;6.82;2.15;;;14.80;64.10;;;;;;4986248;28;20061;-68
2023/05/31 01:04:50;;;;;;;4.82;1.67;;;14.80;64.30;;;;;;4979283;28;20358;-68
2023/05/31 01:07:17;;;;;;;6.38;1.80;;;14.80;64.30;;;;;;4995457;28;20058;-67
2023/05/31 01:09:45;;;;;;;5.38;2.08;;;14.80;64.40;;;;;;4991004;28;20042;-67
2023/05/31 01:12:22;;;;;;;9.30;2.05;;;14.70;64.50;;;;;;4967254;28;20054;-67
2023/05/31 01:15:00;;;;;;;5.38;1.98;;;14.60;64.70;;;;;;4986140;28;20050;-67
2023/05/31 01:17:34;;;;;;;5.72;1.48;;;14.70;64.80;;;;;;4991284;28;20156;-67
2023/05/31 01:20:08;;;;;;;5.32;1.90;;;14.60;65.00;;;;;;4968218;28;20054;-68
2023/05/31 01:22:52;;;;;;;6.00;1.80;;;14.60;65.10;;;;;;4990999;28;20132;-68
2023/05/31 01:25:32;;;;;;;6.93;2.05;;;14.60;65.30;;;;;;4985645;28;20838;-67
2023/05/31 01:28:01;;;;;;;6.55;2.22;;;14.50;65.40;;;;;;4968716;28;20058;-68
2023/05/31 01:30:30;;;;;;;6.50;1.90;;;14.50;65.50;;;;;;4985348;28;20117;-68
2023/05/31 01:33:00;;;;;;;5.97;2.13;;;14.50;65.80;;;;;;4981840;28;20080;-68
2023/05/31 01:35:29;;;;;;;6.60;2.00;;;14.40;66.00;;;;;;4989305;28;20082;-68
2023/05/31 01:37:56;;;;;;;5.22;2.10;;;14.40;66.10;;;;;;4996278;28;20104;-68
2023/05/31 01:40:23;;;;;;;8.30;1.65;;;14.40;66.00;;;;;;4977696;28;20050;-69
2023/05/31 01:42:51;;;;;;;5.55;2.00;;;14.40;66.00;;;;;;4993525;28;20072;-67
2023/05/31 01:45:20;;;;;;;7.07;2.10;;;14.40;66.00;;;;;;4989725;28;20042;-68
2023/05/31 01:47:50;;;;;;;5.82;2.10;;;14.30;66.40;;;;;;4972433;28;20042;-68
2023/05/31 01:50:19;;;;;;;6.28;1.98;;;14.20;66.50;;;;;;4993059;28;20047;-68
2023/05/31 01:52:46;;;;;;;7.68;2.05;;;14.20;66.70;;;;;;4998615;28;20064;-68
2023/05/31 01:55:13;;;;;;;5.60;2.03;;;14.20;66.90;;;;;;4975182;28;20381;-68
2023/05/31 01:57:43;;;;;;;5.88;1.88;;;14.20;66.80;;;;;;4989655;28;20062;-68
2023/05/31 02:00:12;;;;;;;4.97;2.03;;;14.20;66.90;;;;;;4967741;28;20652;-69
2023/05/31 02:02:42;;;;;;;5.88;2.10;;;14.10;66.90;;;;;;4990027;28;20150;-68
2023/05/31 02:05:12;;;;;;;8.52;2.35;;;14.20;66.90;;;;;;4995395;28;20411;-69
2023/05/31 02:07:40;;;;;;;5.88;1.92;;;14.10;67.20;;;;;;4977114;28;20061;-68
2023/05/31 02:10:09;;;;;;;4.35;1.83;;;14.10;67.30;;;;;;4974384;28;20061;-69
2023/05/31 02:12:37;;;;;;;7.00;2.35;;;14.10;67.40;;;;;;4994354;28;20089;-69
2023/05/31 02:15:10;;;;;;;6.85;2.10;;;14.10;67.60;;;;;;4975794;28;20048;-70
2023/05/31 02:17:40;;;;;;;6.28;2.60;;;14.10;67.60;;;;;;4970714;28;20058;-69
2023/05/31 02:20:12;;;;;;;6.30;2.05;;;14.10;67.80;;;;;;4995683;28;20516;-69
2023/05/31 02:22:40;;;;;;;5.75;2.15;;;14.10;67.70;;;;;;4996617;28;20137;-69
2023/05/31 02:25:08;;;;;;;6.72;2.90;;;14.20;67.70;;;;;;4997072;28;20041;-69
2023/05/31 02:27:35;;;;;;;5.93;2.17;;;14.20;67.60;;;;;;4995058;28;20049;-80
2023/05/31 02:30:04;;;;;;;8.30;2.55;;;14.20;67.80;;;;;;4995770;28;20045;-80
2023/05/31 02:32:35;;;;;;;7.60;2.30;;;14.20;67.90;;;;;;4993500;28;20052;-69
2023/05/31 02:35:03;;;;;;;5.82;2.03;;;14.20;67.60;;;;;;4980024;28;20057;-68
2023/05/31 02:37:31;;;;;;;7.47;2.45;;;14.40;67.50;;;;;;4986853;28;20049;-68
2023/05/31 02:39:58;;;;;;;6.82;2.28;;;14.30;67.40;;;;;;4990668;28;20061;-68
2023/05/31 02:42:26;;;;;;;9.57;2.40;;;14.40;67.30;;;;;;4978482;28;20046;-78
2023/05/31 02:44:53;;;;;;;6.47;2.55;;;14.40;66.80;;;;;;4973808;28;20058;-79
2023/05/31 02:47:20;;;;;;;8.15;2.88;;;14.50;66.50;;;;;;4989541;28;20133;-80
2023/05/31 02:49:47;;;;;;;7.20;2.53;;;14.50;66.40;;;;;;4993615;28;20125;-80
2023/05/31 02:52:15;;;;;;;6.65;2.35;;;14.40;66.70;;;;;;4977647;28;20057;-79
2023/05/31 02:55:02;;;;;;;5.93;2.45;;;14.40;66.70;;;;;;4993119;28;20192;-79
2023/05/31 02:57:35;;;;;;;11.75;2.78;;;14.40;67.10;;;;;;4976162;28;20072;-69
2023/05/31 03:00:08;;;;;;;7.30;2.15;;;14.30;67.40;;;;;;4983781;28;20398;-68
2023/05/31 03:02:35;;;;;;;6.05;2.20;;;14.30;67.60;;;;;;4991278;28;20046;-79
2023/05/31 03:05:16;;;;;;;6.82;2.30;;;14.30;67.60;;;;;;4972612;28;20121;-79
2023/05/31 03:07:43;;;;;;;5.75;2.55;;;14.30;67.60;;;;;;4976781;28;20064;-72
2023/05/31 03:10:12;;;;;;;6.75;2.08;;;14.20;67.70;;;;;;4996653;28;20050;-72
2023/05/31 03:12:39;;;;;;;8.27;2.38;;;14.20;68.10;;;;;;4988489;28;20065;-68
2023/05/31 03:15:07;;;;;;;7.35;2.80;;;14.10;68.20;;;;;;4971641;28;20061;-69
2023/05/31 03:17:37;;;;;;;8.98;2.50;;;14.10;68.30;;;;;;4980720;28;20081;-72
2023/05/31 03:20:06;;;;;;;6.07;2.15;;;14.10;68.50;;;;;;4974290;28;20286;-72
2023/05/31 03:22:33;;;;;;;7.95;2.42;;;14.10;68.50;;;;;;4978109;28;20085;-72
2023/05/31 03:25:02;;;;;;;6.18;2.53;;;14.00;68.70;;;;;;4977329;28;20133;-73
2023/05/31 03:27:31;;;;;;;7.65;2.70;;;14.00;68.50;;;;;;4986619;28;20137;-73
2023/05/31 03:29:59;;;;;;;6.38;2.40;;;14.10;68.20;;;;;;4987720;28;20129;-73
2023/05/31 03:32:25;;;;;;;7.47;2.50;;;14.00;68.00;;;;;;4973713;28;20050;-73
2023/05/31 03:34:52;;;;;;;8.05;2.45;;;14.10;67.40;;;;;;4988444;28;20042;-73
2023/05/31 03:37:19;;;;;;;7.32;2.25;;;14.10;67.30;;;;;;4993983;28;20054;-63
2023/05/31 03:39:51;;;;;;;9.85;2.60;;;14.10;67.50;;;;;;4978885;28;20046;-63
2023/05/31 03:42:32;;;;;;;6.32;2.40;;;14.10;67.80;;;;;;4994915;28;20065;-63
2023/05/31 03:44:59;;;;;;;6.05;2.22;;;14.10;67.40;;;;;;4986597;28;20120;-63
2023/05/31 03:47:28;;;;;;;8.65;2.72;;;14.20;67.30;;;;;;4992858;28;20137;-63
2023/05/31 03:49:56;;;;;;;8.30;2.83;;;14.10;67.60;;;;;;4981142;28;20069;-63
2023/05/31 03:52:23;;;;;;;9.73;2.80;;;14.10;67.70;;;;;;4970248;28;20058;-64
2023/05/31 03:54:50;;;;;;;7.13;2.55;;;14.10;67.90;;;;;;4971224;28;20053;-63
2023/05/31 03:57:18;;;;;;;7.47;2.47;;;14.00;68.10;;;;;;4996002;28;20044;-63
2023/05/31 03:59:46;;;;;;;7.80;2.40;;;14.00;68.30;;;;;;4993817;28;20046;-64
2023/05/31 04:02:13;;;;;;;6.50;2.05;;;14.00;68.50;;;;;;4990983;28;20493;-64
2023/05/31 04:04:40;;;;;;;6.85;2.38;;;13.90;68.70;;;;;;4990031;28;20058;-63
2023/05/31 04:07:07;;;;;;;5.45;2.63;;;14.00;68.40;;;;;;4976962;28;20050;-64
2023/05/31 04:09:33;;;;;;;9.57;2.95;;;14.00;68.40;;;;;;4993826;28;20057;-64
2023/05/31 04:12:02;;;;;;;6.68;2.65;;;14.10;68.40;;;;;;4973394;28;20061;-64
2023/05/31 04:14:29;;;;;;;7.00;2.53;;;14.00;68.40;;;;;;4979797;28;20156;-63
2023/05/31 04:17:00;;;;;;;7.17;2.30;;;14.10;68.40;;;;;;4971469;28;20050;-63
2023/05/31 04:19:27;;;;;;;8.02;2.33;;;14.10;68.50;;;;;;4966656;28;20493;-63
2023/05/31 04:21:54;;;;;;;8.27;2.65;;;14.10;68.60;;;;;;4989709;28;20125;-63
2023/05/31 04:24:21;;;;;;;6.50;2.30;;;14.00;68.60;;;;;;4994137;28;20129;-63
2023/05/31 04:26:48;;;;;;;7.00;2.42;;;13.90;68.70;;;;;;4987063;28;20042;-69
2023/05/31 04:29:17;;;;;;;9.70;3.00;;;14.00;68.80;;;;;;4990244;28;20045;-69
2023/05/31 04:31:44;;;;;;;5.93;2.60;;;14.10;68.70;;;;;;4972179;28;20073;-63
2023/05/31 04:34:18;;;;;;;5.85;2.55;;;14.10;68.60;;;;;;4976386;28;20042;-64
2023/05/31 04:36:49;;;;;;;5.88;2.38;;;14.10;68.80;;;;;;4973170;28;20046;-69
2023/05/31 04:39:21;;;;;;;8.32;2.83;;;14.00;69.00;;;;;;4977785;28;20050;-69
2023/05/31 04:41:48;;;;;;;7.13;2.47;;;14.10;68.90;;;;;;4973200;28;20465;-62
2023/05/31 04:44:18;;;;;;;6.38;2.30;;;14.10;69.00;;;;;;4977980;28;20057;-62
2023/05/31 04:46:45;;;;;;;8.40;2.42;;;14.10;68.90;;;;;;4982196;28;20061;-61
2023/05/31 04:49:16;;;;;;;7.60;2.22;;;14.20;68.70;;;;;;4972940;28;20042;-61
2023/05/31 04:51:43;;;;;;;8.45;2.60;;;14.20;68.70;;;;;;4994421;28;20072;-61
2023/05/31 04:54:09;;;;;;;6.97;2.53;;;14.20;68.60;;;;;;4985712;28;20054;-61
2023/05/31 04:56:36;;;;;;;5.20;2.45;;;14.20;68.60;;;;;;4973438;28;20054;-61
2023/05/31 04:59:04;;;;;;;7.57;2.28;;;14.20;68.60;;;;;;4976135;28;20077;-62
2023/05/31 05:01:31;;;;;;;6.53;2.67;;;14.20;68.60;;;;;;4984795;28;20058;-62
2023/05/31 05:04:09;;;;;;;7.75;2.72;;;14.20;68.90;;;;;;4974476;28;20104;-62
2023/05/31 05:06:40;;;;;;;6.55;2.25;;;14.20;68.90;;;;;;4992374;28;20074;-61
2023/05/31 05:09:07;;;;;;;6.57;2.63;;;14.30;68.70;;;;;;4976866;28;20054;-62
2023/05/31 05:11:35;;;;;;;8.82;2.83;;;14.30;68.40;;;;;;4992727;28;20053;-68
2023/05/31 05:14:02;;;;;;;6.10;2.17;;;14.30;68.50;;;;;;4977584;28;20059;-70
2023/05/31 05:16:30;;;;;;;5.93;2.42;;;14.30;68.80;;;;;;4973394;28;20488;-69
2023/05/31 05:18:57;;;;;;;5.50;2.08;;;14.40;68.80;;;;;;4977522;28;20156;-69
2023/05/31 05:21:25;;;;;;;9.30;2.63;;;14.40;68.70;;;;;;4980732;28;20062;-69
2023/05/31 05:23:54;;;;;;;9.38;2.40;;;14.50;68.40;;;;;;4992398;28;20569;-68
2023/05/31 05:26:21;;;;;;;4.75;1.88;;;14.60;68.50;;;;;;4997411;28;20161;-69
2023/05/31 05:28:48;;;;;;;6.13;2.45;;;14.60;68.20;;;;;;4982394;28;20962;-68
2023/05/31 05:31:15;;;;;;;5.85;2.30;;;14.60;68.70;;;;;;4977110;28;20053;-69
2023/05/31 05:33:45;;;;;;;6.88;2.58;;;14.60;68.60;;;;;;4984348;28;20440;-67
2023/05/31 05:36:13;;;;;;;7.65;2.97;;;14.70;68.40;;;;;;4974634;28;20432;-67
2023/05/31 05:38:46;;;;;;;6.93;2.20;;;14.70;68.70;;;;;;4983843;28;20520;-67
2023/05/31 05:41:14;;;;;;;6.15;2.40;;;14.70;68.70;;;;;;4977020;28;20174;-68
2023/05/31 05:43:43;;;;;;;6.97;2.17;;;14.70;68.80;;;;;;4982692;28;20061;-69
2023/05/31 05:46:13;;;;;;;7.05;2.25;;;14.80;68.30;;;;;;4975599;28;20049;-68
2023/05/31 05:48:40;;;;;;;7.45;2.25;;;14.80;67.80;;;;;;4973222;28;20055;-63
2023/05/31 05:51:07;;;;;;;6.82;2.38;;;14.80;68.10;;;;;;4981672;28;20073;-63
2023/05/31 05:53:35;;;;;;;7.93;2.85;;;14.90;67.60;;;;;;4977634;28;20054;-67
2023/05/31 05:56:03;;;;;;;6.63;2.70;;;14.90;67.40;;;;;;4976766;28;20802;-68
2023/05/31 05:58:42;;;;;;;7.45;2.60;;;14.90;67.30;;;;;;4979202;28;20149;-71
2023/05/31 06:01:28;;;;;;;6.55;2.45;;;14.90;67.30;;;;;;4993950;28;20177;-71
2023/05/31 06:03:57;;;;;;;9.37;3.23;;;15.00;67.30;;;;;;4971153;28;20493;-72
2023/05/31 06:06:24;;;;;;;8.52;3.08;;;15.10;67.00;;;;;;4981519;28;20533;-71
2023/05/31 06:08:51;;;;;;;6.15;2.80;;;15.10;67.00;;;;;;4980505;28;20045;-71
2023/05/31 06:11:19;;;;;;;8.35;2.83;;;15.10;66.60;;;;;;4971387;28;20052;-71
2023/05/31 06:13:48;;;;;;;6.25;3.05;;;15.10;66.50;;;;;;4987079;28;20141;-71
2023/05/31 06:16:22;;;;;;;8.00;3.20;;;15.20;66.40;;;;;;4989697;28;20050;-72
2023/05/31 06:18:48;;;;;;;7.78;3.83;;;15.30;66.20;;;;;;4992162;28;20051;-62
2023/05/31 06:21:16;;;;;;;9.13;4.32;;;15.30;66.10;;;;;;4989007;28;20039;-62
2023/05/31 06:23:44;;;;;;;10.65;4.40;;;15.40;65.70;;;;;;4981643;28;20050;-68
2023/05/31 06:26:12;;;;;;;8.32;4.35;;;15.40;65.70;;;;;;4979218;28;20057;-68
2023/05/31 06:28:39;;;;;;;8.30;4.80;;;15.50;65.20;;;;;;4976045;28;20050;-61
2023/05/31 06:31:15;;;;;;;10.75;5.80;;;15.60;64.80;;;;;;4974611;28;20082;-61
2023/05/31 06:33:42;;;;;;;9.98;5.57;;;15.80;64.40;;;;;;4994829;28;20050;-61
2023/05/31 06:36:11;;;;;;;10.10;5.07;;;15.90;64.50;;;;;;4977829;28;20387;-60
2023/05/31 06:38:38;;;;;;;11.00;4.75;;;16.10;63.90;;;;;;4977812;28;20054;-60
2023/05/31 06:41:05;;;;;;;9.38;4.18;;;16.30;63.40;;;;;;4992858;28;20050;-61
2023/05/31 06:43:33;;;;;;;9.68;4.30;;;16.50;62.80;;;;;;4977033;28;20050;-63
2023/05/31 06:46:39;;;;;;;8.80;4.05;;;16.60;62.60;;;;;;4985613;28;20096;-72
2023/05/31 06:49:25;;;;;;;7.63;3.90;;;16.90;62.10;;;;;;4992833;28;20121;-72
2023/05/31 06:52:13;;;;;;;10.20;4.32;;;17.10;61.50;;;;;;4997681;28;20064;-72
2023/05/31 06:54:58;;;;;;;9.95;4.90;;;17.30;60.90;;;;;;4996082;28;20053;-72
2023/05/31 06:57:26;;;;;;;7.15;3.35;;;17.40;60.40;;;;;;4974891;28;20129;-70
2023/05/31 06:59:54;;;;;;;7.82;3.47;;;17.60;60.30;;;;;;4972824;28;20056;-69
2023/05/31 07:02:22;;;;;;;8.57;3.53;;;17.80;59.40;;;;;;4991728;28;20038;-70
2023/05/31 07:04:49;;;;;;;7.38;3.20;;;18.00;58.70;;;;;;4996275;28;20073;-70
2023/05/31 07:07:17;;;;;;;6.53;2.70;;;18.10;58.20;;;;;;4979287;28;20068;-62
2023/05/31 07:09:44;;;;;;;6.32;2.63;;;18.30;57.30;;;;;;4997450;28;20054;-62
2023/05/31 07:12:11;;;;;;;7.25;2.25;;;18.40;56.90;;;;;;4974215;28;20054;-82
2023/05/31 07:14:40;;;;;;;7.45;2.47;;;18.60;56.30;;;;;;4978920;28;20173;-82
2023/05/31 07:17:07;;;;;;;6.22;2.28;;;18.70;55.70;;;;;;4976457;28;20086;-72
2023/05/31 07:19:44;;;;;;;5.75;1.90;;;19.00;55.10;;;;;;4993456;28;20042;-71
2023/05/31 07:22:13;;;;;;;5.82;1.90;;;19.10;54.90;;;;;;4995829;28;20052;-70
2023/05/31 07:24:40;;;;;;;4.97;1.95;;;19.30;54.40;;;;;;4994859;28;20065;-69
2023/05/31 07:27:08;;;;;;;5.85;2.10;;;19.50;53.70;;;;;;4997479;28;20050;-70
2023/05/31 07:29:35;;;;;;;5.75;2.28;;;19.60;53.60;;;;;;4994311;28;20059;-71
2023/05/31 07:32:02;;;;;;;4.53;1.73;;;19.70;53.10;;;;;;4992481;28;20069;-68
2023/05/31 07:34:29;;;;;;;5.45;1.63;;;19.90;52.70;;;;;;4990533;28;20085;-69
2023/05/31 07:36:57;;;;;;;6.18;2.15;;;20.10;52.70;;;;;;4979462;28;20104;-69
2023/05/31 07:39:24;;;;;;;6.25;2.25;;;20.20;51.70;;;;;;4993765;28;20497;-69
2023/05/31 07:41:51;;;;;;;5.30;2.10;;;20.30;51.80;;;;;;4998003;28;20517;-69
2023/05/31 07:44:19;;;;;;;6.18;2.15;;;20.40;51.30;;;;;;4991541;28;20050;-69
2023/05/31 07:46:46;;;;;;;5.55;1.80;;;20.60;50.90;;;;;;4995786;28;20515;-69
2023/05/31 07:49:13;;;;;;;5.25;2.08;;;20.70;50.30;;;;;;4992905;28;20092;-69
2023/05/31 07:51:40;;;;;;;6.25;1.98;;;20.80;50.00;;;;;;4990878;28;20046;-82
2023/05/31 07:54:09;;;;;;;5.25;1.77;;;21.10;48.90;;;;;;4993172;28;20513;-83
2023/05/31 07:56:36;;;;;;;4.43;2.13;;;21.10;48.40;;;;;;4996701;28;20073;-62
2023/05/31 07:59:03;;;;;;;4.90;1.88;;;21.30;48.70;;;;;;4990306;28;20062;-62
2023/05/31 08:01:30;;;;;;;8.65;2.53;;;21.40;48.30;;;;;;4990919;28;20058;-62
2023/05/31 08:04:06;;;;;;;5.28;1.85;;;21.60;48.40;;;;;;4995084;28;20042;-62
2023/05/31 08:06:33;;;;;;;7.25;2.15;;;21.60;47.90;;;;;;4987892;28;20042;-62
2023/05/31 08:09:00;;;;;;;5.78;1.67;;;21.70;47.10;;;;;;4993606;28;20137;-62
2023/05/31 08:11:28;;;;;;;6.40;1.95;;;21.80;47.20;;;;;;4988763;28;20403;-62
2023/05/31 08:13:55;;;;;;;4.32;1.60;;;21.90;46.80;;;;;;4991856;28;20465;-62
2023/05/31 08:16:22;;;;;;;3.40;1.70;;;22.10;46.40;;;;;;4993471;28;20409;-63
2023/05/31 08:18:49;;;;;;;5.05;1.70;;;22.20;46.50;;;;;;4994427;28;20049;-62
2023/05/31 08:21:16;;;;;;;3.55;1.33;;;22.40;45.60;;;;;;4989479;28;20134;-63
2023/05/31 08:23:44;;;;;;;5.30;1.60;;;22.40;45.30;;;;;;4992810;28;23777;-62
2023/05/31 08:26:10;;;;;;;6.18;1.50;;;22.50;45.50;;;;;;4994337;28;20058;-63
2023/05/31 08:28:39;;;;;;;4.15;1.42;;;22.60;45.20;;;;;;4990231;28;20043;-62
2023/05/31 08:31:06;;;;;;;4.72;1.70;;;22.70;45.00;;;;;;4992230;28;20179;-62
2023/05/31 08:33:33;;;;;;;5.60;1.40;;;22.80;44.80;;;;;;4994232;28;20046;-63
2023/05/31 08:36:01;;;;;;;5.63;1.58;;;22.90;43.60;;;;;;4992835;28;20053;-63
2023/05/31 08:38:28;;;;;;;4.68;1.80;;;22.90;43.30;;;;;;4992138;28;20145;-62
2023/05/31 08:40:57;;;;;;;4.75;1.58;;;23.10;43.00;;;;;;4986186;28;20371;-63
2023/05/31 08:43:26;;;;;;;4.22;1.50;;;23.30;43.10;;;;;;4989702;28;20508;-62
2023/05/31 08:45:55;;;;;;;3.85;1.40;;;23.30;42.20;;;;;;4990897;28;20045;-62
2023/05/31 08:48:28;;;;;;;3.25;1.33;;;23.30;40.00;;;;;;4990775;28;20047;-62
2023/05/31 08:50:58;;;;;;;4.65;1.33;;;23.20;39.50;;;;;;4983336;28;20048;-64
2023/05/31 08:53:25;;;;;;;5.68;1.25;;;23.30;39.10;;;;;;4992965;28;20068;-62
2023/05/31 08:55:53;;;;;;;3.40;1.48;;;23.50;39.60;;;;;;4993458;28;20034;-61
2023/05/31 08:58:21;;;;;;;5.85;1.33;;;23.70;39.30;;;;;;4987390;28;20081;-61
2023/05/31 09:00:49;;;;;;;3.17;1.50;;;23.80;38.40;;;;;;4989857;28;20060;-63
2023/05/31 09:03:17;;;;;;;4.47;1.43;;;23.90;38.30;;;;;;4990221;28;20042;-63
2023/05/31 09:05:44;;;;;;;2.92;1.25;;;23.90;38.70;;;;;;4991747;28;20058;-61
2023/05/31 09:08:11;;;;;;;4.00;1.50;;;24.00;38.50;;;;;;4994817;28;20054;-62
2023/05/31 09:10:40;;;;;;;3.88;1.30;;;24.00;38.00;;;;;;4987973;28;20083;-61
2023/05/31 09:13:08;;;;;;;3.22;1.30;;;24.10;37.40;;;;;;4974817;28;20062;-62
2023/05/31 09:15:37;;;;;;;3.95;1.50;;;24.30;38.10;;;;;;4992707;28;20134;-62
2023/05/31 09:18:15;;;;;;;5.07;1.00;;;24.40;38.40;;;;;;4997622;28;20050;-61
2023/05/31 09:20:44;;;;;;;3.33;1.38;;;24.50;39.00;;;;;;4986357;28;20046;-61
2023/05/31 09:23:11;;;;;;;2.13;1.20;;;24.70;38.50;;;;;;4992189;28;20494;-62
2023/05/31 09:25:46;;;;;;;5.35;1.40;;;24.70;37.90;;;;;;4985404;28;20050;-61
2023/05/31 09:28:14;;;;;;;3.50;1.40;;;24.80;37.90;;;;;;4992333;28;20061;-61
2023/05/31 09:30:41;;;;;;;2.67;1.00;;;24.80;37.20;;;;;;4989456;28;20058;-62
2023/05/31 09:33:08;;;;;;;4.93;1.23;;;24.90;37.50;;;;;;4991452;28;20046;-64
2023/05/31 09:35:35;;;;;;;2.78;1.23;;;24.90;37.50;;;;;;4989954;28;21278;-62
2023/05/31 09:38:07;;;;;;;4.28;1.20;;;25.00;37.70;;;;;;4992741;28;20528;-62
2023/05/31 09:40:35;;;;;;;2.65;1.00;;;25.10;37.00;;;;;;4991255;28;20413;-63
2023/05/31 09:43:02;;;;;;;3.60;1.35;;;25.20;37.20;;;;;;4990021;28;20062;-62
2023/05/31 09:45:29;;;;;;;4.15;1.55;;;25.30;37.10;;;;;;4980185;28;20106;-61
2023/05/31 09:47:56;;;;;;;3.63;1.17;;;25.40;37.30;;;;;;4987850;28;20049;-61
2023/05/31 09:50:24;;;;;;;3.22;1.45;;;25.50;37.10;;;;;;4989229;28;20074;-62
2023/05/31 09:52:57;;;;;;;3.55;1.50;;;25.60;36.80;;;;;;4987140;28;20359;-62
2023/05/31 09:55:38;;;;;;;3.33;1.25;;;25.60;36.90;;;;;;4992851;28;20046;-61
2023/05/31 09:58:06;;;;;;;3.60;1.40;;;25.60;36.10;;;;;;4995134;28;20561;-61
2023/05/31 10:00:33;;;;;;;3.10;1.23;;;25.60;36.50;;;;;;4978259;28;20046;-61
2023/05/31 10:03:02;;;;;;;3.78;1.52;;;25.70;37.00;;;;;;4997004;28;20056;-62
2023/05/31 10:05:29;;;;;;;;;;;25.80;37.40;;;;;;4997348;28;20070;-62
2023/05/31 10:07:55;;;;;;;4.03;1.20;;;25.90;37.40;;;;;;4992686;28;19932;-61
2023/05/31 10:10:22;;;;;;;2.72;1.25;;;26.00;36.80;;;;;;4992963;28;20051;-61
2023/05/31 10:12:52;;;;;;;4.50;1.60;;;26.10;36.20;;;;;;4993249;28;20130;-62
2023/05/31 10:15:23;;;;;;;2.25;1.33;;;26.20;36.30;;;;;;4989523;28;20058;-63
2023/05/31 10:17:59;;;;;;;4.95;1.20;;;26.30;36.30;;;;;;4997083;28;20048;-62
2023/05/31 10:20:33;;;;;;;4.90;1.42;;;26.30;35.30;;;;;;4993409;28;20046;-61
2023/05/31 10:23:05;;;;;;;2.60;1.20;;;26.40;35.30;;;;;;4995476;28;20058;-62
2023/05/31 10:25:37;;;;;;;3.33;1.20;;;26.50;35.30;;;;;;4992554;28;20070;-61
2023/05/31 10:28:12;;;;;;;2.88;1.30;;;26.50;35.30;;;;;;4995584;28;20105;-64
2023/05/31 10:30:41;;;;;;;5.50;1.42;;;26.60;34.70;;;;;;4992249;28;20127;-63
2023/05/31 10:33:12;;;;;;;2.88;1.08;;;26.60;35.00;;;;;;4995824;28;20146;-62
2023/05/31 10:35:39;;;;;;;3.33;1.40;;;26.70;35.00;;;;;;4994201;28;20153;-61
2023/05/31 10:38:07;;;;;;;5.30;1.40;;;26.70;34.90;;;;;;4992932;28;20057;-62
2023/05/31 10:40:42;;;;;;;3.38;1.27;;;26.80;34.90;;;;;;4994983;28;20543;-62
2023/05/31 10:43:19;;;;;;;4.30;1.20;;;26.90;35.20;;;;;;4997538;28;20046;-62
2023/05/31 10:45:49;;;;;;;2.78;1.20;;;26.90;34.80;;;;;;4992915;28;20083;-61
2023/05/31 10:48:21;;;;;;;3.58;1.20;;;26.90;35.00;;;;;;4995231;28;20520;-61
2023/05/31 10:50:57;;;;;;;3.70;1.20;;;27.00;35.10;;;;;;4990682;28;20049;-61
2023/05/31 10:53:29;;;;;;;2.63;1.25;;;27.00;34.90;;;;;;4990023;28;20490;-62
2023/05/31 10:56:03;;;;;;;3.53;1.40;;;27.10;34.60;;;;;;4988870;28;20050;-61
2023/05/31 10:58:36;;;;;;;3.55;1.58;;;27.10;35.10;;;;;;4992723;28;20058;-61
2023/05/31 11:01:05;;;;;;;4.95;2.20;;;27.20;34.70;;;;;;4979361;28;20054;-61
2023/05/31 11:03:34;;;;;;;;;;;27.20;34.90;;;;;;4992495;28;20085;-62
2023/05/31 11:06:03;;;;;;;4.60;1.90;;;27.30;34.80;;;;;;4991382;28;19936;-61
2023/05/31 11:08:31;;;;;;;3.63;1.33;;;27.40;34.20;;;;;;4993357;28;20050;-62
2023/05/31 11:11:29;;;;;;;2.95;1.30;;;27.50;33.20;;;;;;4996908;28;20524;-61
2023/05/31 11:13:59;;;;;;;3.67;1.40;;;27.50;33.70;;;;;;4995809;28;20038;-61
2023/05/31 11:16:27;;;;;;;3.88;1.23;;;27.50;33.50;;;;;;4991697;28;20046;-61
2023/05/31 11:19:05;;;;;;;2.45;1.27;;;27.50;33.20;;;;;;4991210;28;20046;-62
2023/05/31 11:21:49;;;;;;;3.83;1.30;;;27.50;33.40;;;;;;4993918;28;20589;-62
2023/05/31 11:24:29;;;;;;;5.68;1.77;;;27.50;33.70;;;;;;4995637;28;20049;-61
2023/05/31 11:26:58;;;;;;;3.83;1.45;;;27.60;33.40;;;;;;4979315;28;20052;-62
2023/05/31 11:29:47;;;;;;;3.67;1.48;;;27.60;32.80;;;;;;4991727;28;20070;-62
2023/05/31 11:32:16;;;;;;;6.45;2.63;;;27.60;32.80;;;;;;4984565;28;20074;-62
2023/05/31 11:34:50;;;;;;;4.35;2.00;;;27.60;31.90;;;;;;4993502;28;20093;-62
2023/05/31 11:37:17;;;;;;;4.32;1.60;;;27.70;32.30;;;;;;4988012;28;20091;-63
2023/05/31 11:39:45;;;;;;;4.60;1.50;;;27.70;32.80;;;;;;4990142;28;20516;-62
2023/05/31 11:42:12;;;;;;;3.13;1.33;;;27.70;32.80;;;;;;4990157;28;20515;-63
2023/05/31 11:44:45;;;;;;;3.15;1.52;;;27.80;31.90;;;;;;4994073;28;20057;-62
2023/05/31 11:47:18;;;;;;;3.55;1.30;;;27.80;31.70;;;;;;4990183;28;20046;-62
2023/05/31 11:49:45;;;;;;;3.05;1.40;;;27.80;32.00;;;;;;4987456;28;20057;-62
2023/05/31 11:52:16;;;;;;;2.95;1.38;;;27.80;32.60;;;;;;4990232;28;20042;-63
2023/05/31 11:54:45;;;;;;;2.33;0.90;;;27.80;32.50;;;;;;4995962;28;20045;-62
2023/05/31 11:57:12;;;;;;;3.33;1.30;;;27.80;31.10;;;;;;4990955;28;20136;-62
2023/05/31 11:59:40;;;;;;;4.10;1.30;;;27.70;31.40;;;;;;4989503;28;20046;-62
2023/05/31 12:02:10;;;;;;;2.72;1.20;;;27.70;31.50;;;;;;4995429;28;20470;-62
2023/05/31 12:04:38;;;;;;;2.55;1.30;;;27.70;31.70;;;;;;4988693;28;20078;-62
2023/05/31 12:07:07;;;;;;;2.63;1.20;;;27.70;32.20;;;;;;4990790;28;20046;-62
2023/05/31 12:09:35;;;;;;;1.73;0.90;;;27.70;31.50;;;;;;4990948;28;20049;-62
2023/05/31 12:12:05;;;;;;;3.33;1.17;;;27.70;32.50;;;;;;4989738;28;20049;-62
2023/05/31 12:14:32;;;;;;;3.45;1.30;;;27.80;32.20;;;;;;4990574;28;20141;-61
2023/05/31 12:17:03;;;;;;;2.42;1.15;;;27.90;32.10;;;;;;4992674;28;20058;-61
2023/05/31 12:19:31;;;;;;;3.25;1.15;;;27.90;32.00;;;;;;4987676;28;20054;-62
2023/05/31 12:21:58;;;;;;;3.40;1.20;;;28.00;32.50;;;;;;4990287;28;20050;-62
2023/05/31 12:24:25;;;;;;;3.20;1.15;;;27.90;31.70;;;;;;4991212;28;20050;-62
2023/05/31 12:26:54;;;;;;;4.03;1.17;;;27.80;31.20;;;;;;4992758;28;20083;-62
2023/05/31 12:29:28;;;;;;;3.15;1.30;;;27.70;31.70;;;;;;4989700;28;20493;-62
2023/05/31 12:32:02;;;;;;;2.47;1.25;;;27.70;32.20;;;;;;4988554;28;20221;-62
2023/05/31 12:34:30;;;;;;;3.05;1.20;;;27.70;32.70;;;;;;4990374;28;20580;-62
2023/05/31 12:36:59;;;;;;;4.05;1.02;;;27.70;32.10;;;;;;4989928;28;20066;-62
2023/05/31 12:39:26;;;;;;;3.10;1.23;;;27.80;31.80;;;;;;4990492;28;20586;-61
2023/05/31 12:41:53;;;;;;;4.88;1.20;;;27.80;32.30;;;;;;4969890;28;20117;-62
2023/05/31 12:44:21;;;;;;;3.58;1.13;;;27.80;32.50;;;;;;4994535;28;20046;-62
2023/05/31 12:46:49;;;;;;;3.63;1.10;;;27.80;32.20;;;;;;4991124;28;20052;-62
2023/05/31 12:49:21;;;;;;;3.45;1.15;;;27.70;32.00;;;;;;4994101;28;20073;-62
2023/05/31 12:51:48;;;;;;;5.15;1.15;;;27.70;32.00;;;;;;4982422;28;20078;-62
2023/05/31 12:54:18;;;;;;;2.53;1.10;;;27.60;31.90;;;;;;4979884;28;20066;-62
2023/05/31 12:56:45;;;;;;;3.15;1.23;;;27.50;32.20;;;;;;4985785;28;20049;-62
2023/05/31 12:59:12;;;;;;;3.63;1.25;;;27.50;33.60;;;;;;4979297;28;20093;-61